createdAt,value
2019-01-25T00:01:09.909Z,74.30
2019-01-25T00:04:00.538Z,73.90
2019-01-25T00:06:45.435Z,74.50
2019-01-25T00:09:30.320Z,74.30
2019-01-25T00:12:17.569Z,74.40
2019-01-25T00:15:04.960Z,74.00
2019-01-25T00:17:50.280Z,74.50
2019-01-25T00:20:37.974Z,74.30
2019-01-25T00:43:51.468Z,75.40
2019-01-25T00:46:36.528Z,74.70
2019-01-25T00:49:21.342Z,75.80
2019-01-25T00:52:06.876Z,74.50
2019-01-25T00:54:51.667Z,74.50
2019-01-25T00:57:36.776Z,74.00
2019-01-25T01:00:25.009Z,74.20
2019-01-25T01:03:10.018Z,73.60
2019-01-25T01:05:55.399Z,74.30
2019-01-25T01:12:44.287Z,73.90
2019-01-25T01:52:19.208Z,76.00
2019-01-25T01:55:05.299Z,75.20
2019-01-25T02:01:11.955Z,74.50
2019-01-25T02:03:57.084Z,75.30
2019-01-25T02:30:51.132Z,75.50
2019-01-25T03:17:35.571Z,75.20
2019-01-25T03:23:31.397Z,75.10
2019-01-25T03:26:16.395Z,75.30
2019-01-25T03:29:01.528Z,75.10
2019-01-25T03:31:47.027Z,74.80
2019-01-25T03:34:32.069Z,74.10
2019-01-25T03:37:16.923Z,74.10
2019-01-25T03:40:05.521Z,73.80
2019-01-25T03:42:50.769Z,73.40
2019-01-25T04:04:30.274Z,75.50
2019-01-25T04:10:39.391Z,74.50
2019-01-25T04:21:10.948Z,75.80
2019-01-25T04:24:02.297Z,74.60
2019-01-25T04:38:29.780Z,75.70
2019-01-25T04:41:15.304Z,75.30
2019-01-25T04:44:00.312Z,75.10
2019-01-25T04:50:19.549Z,74.80
2019-01-25T04:56:11.709Z,74.50
2019-01-25T04:58:56.950Z,75.10
2019-01-25T05:08:53.062Z,75.40
2019-01-25T05:40:33.033Z,76.70
2019-01-25T05:43:18.397Z,76.00
2019-01-25T05:46:03.189Z,75.80
2019-01-25T05:48:48.354Z,75.40
2019-01-25T05:51:36.380Z,75.80
2019-01-25T06:17:03.047Z,76.80
2019-01-25T06:19:50.216Z,76.50
2019-01-25T06:22:35.049Z,76.10
2019-01-25T06:28:41.268Z,76.30
2019-01-25T06:31:26.420Z,75.30
2019-01-25T06:34:11.628Z,75.70
2019-01-25T06:36:57.101Z,76.10
2019-01-25T06:39:41.834Z,75.40
2019-01-25T06:42:27.316Z,75.40
2019-01-25T06:45:12.406Z,75.10
2019-01-25T06:47:57.562Z,75.30
2019-01-25T06:50:43.222Z,74.50
2019-01-25T06:53:28.486Z,74.50
2019-01-25T06:56:30.117Z,74.20
2019-01-25T06:59:16.896Z,74.10
2019-01-25T07:02:03.538Z,74.40
2019-01-25T07:04:48.474Z,74.10
2019-01-25T07:07:36.431Z,74.80
2019-01-25T07:10:28.215Z,74.70
2019-01-25T07:13:13.633Z,74.30
2019-01-25T07:19:12.205Z,75.30
2019-01-25T07:21:57.184Z,75.40
2019-01-25T07:25:15.650Z,75.00
2019-01-25T07:28:00.929Z,75.70
2019-01-25T07:30:48.121Z,75.50
2019-01-25T07:33:33.509Z,74.30
2019-01-25T07:36:18.523Z,75.50
2019-01-25T07:39:07.417Z,75.20
2019-01-25T07:41:58.885Z,75.60
2019-01-25T07:44:39.251Z,75.20
2019-01-25T07:47:24.460Z,75.20
2019-01-25T07:50:10.987Z,75.30
2019-01-25T07:52:56.290Z,75.50
2019-01-25T07:55:41.447Z,74.80
2019-01-25T07:58:26.764Z,75.60
2019-01-25T08:01:14.220Z,74.80
2019-01-25T08:03:58.906Z,73.60
2019-01-25T08:06:44.073Z,74.00
2019-01-25T08:09:29.430Z,74.40
2019-01-25T08:12:14.683Z,74.00
2019-01-25T08:15:00.498Z,73.90
2019-01-25T08:17:46.000Z,74.00
2019-01-25T08:20:31.123Z,73.90
2019-01-25T08:23:15.975Z,74.70
2019-01-25T08:26:01.179Z,74.20
2019-01-25T08:28:45.966Z,75.10
2019-01-25T08:31:31.352Z,74.70
2019-01-25T08:34:16.521Z,74.20
2019-01-25T08:37:01.745Z,75.80
2019-01-25T08:39:47.051Z,75.50
2019-01-25T08:42:32.515Z,75.00
2019-01-25T08:45:18.040Z,75.80
2019-01-25T08:48:03.905Z,76.50
2019-01-25T08:50:48.795Z,75.60
2019-01-25T08:53:34.296Z,76.80
2019-01-25T08:56:19.432Z,77.20
2019-01-25T08:59:04.717Z,76.80
2019-01-25T09:04:59.113Z,76.30
2019-01-25T09:07:44.220Z,76.30
2019-01-25T09:10:29.431Z,76.50
2019-01-25T09:13:14.383Z,76.90
2019-01-25T09:15:59.513Z,75.90
2019-01-25T09:18:44.259Z,75.50
2019-01-25T09:21:29.489Z,75.00
2019-01-25T09:24:14.419Z,74.50
2019-01-25T09:26:59.903Z,75.30
2019-01-25T09:29:44.813Z,76.90
2019-01-25T09:32:30.612Z,75.10
2019-01-25T09:35:15.966Z,75.10
2019-01-25T09:38:00.889Z,75.50
2019-01-25T09:40:46.270Z,75.80
2019-01-25T09:43:31.384Z,75.70
2019-01-25T09:46:16.712Z,74.20
2019-01-25T09:49:01.890Z,73.20
2019-01-25T09:51:47.231Z,73.30
2019-01-25T09:54:32.796Z,71.90
2019-01-25T09:57:17.598Z,71.70
2019-01-25T10:00:06.627Z,71.60
2019-01-25T10:02:51.687Z,70.40
2019-01-25T10:05:36.837Z,69.60
2019-01-25T10:08:22.619Z,69.00
2019-01-25T10:11:07.349Z,68.60
2019-01-25T10:13:52.684Z,68.30
2019-01-25T10:16:37.816Z,68.50
2019-01-25T10:19:23.141Z,67.20
2019-01-25T10:22:08.787Z,68.20
2019-01-25T10:24:54.548Z,67.10
2019-01-25T10:27:39.416Z,68.40
2019-01-25T10:30:26.349Z,68.00
2019-01-25T10:33:11.869Z,68.00
2019-01-25T10:35:56.745Z,67.70
2019-01-25T10:38:42.138Z,66.40
2019-01-25T10:41:27.357Z,66.30
2019-01-25T10:44:12.845Z,66.90
2019-01-25T10:47:00.155Z,66.80
2019-01-25T10:49:45.017Z,66.50
2019-01-25T10:52:30.172Z,66.60
2019-01-25T10:55:15.264Z,65.50
2019-01-25T10:58:00.338Z,64.70
2019-01-25T11:00:45.190Z,64.00
2019-01-25T11:03:30.292Z,64.50
2019-01-25T11:06:15.263Z,63.90
2019-01-25T11:09:00.488Z,63.30
2019-01-25T11:11:45.875Z,63.70
2019-01-25T11:14:30.933Z,64.50
2019-01-25T11:17:16.026Z,64.10
2019-01-25T11:20:01.647Z,63.40
2019-01-25T11:22:46.917Z,64.80
2019-01-25T11:25:37.813Z,65.40
2019-01-25T11:28:22.909Z,67.10
2019-01-25T11:31:08.048Z,67.50
2019-01-25T11:33:54.057Z,68.20
2019-01-25T11:36:39.103Z,69.60
2019-01-25T11:39:24.171Z,69.70
2019-01-25T11:42:09.108Z,70.20
2019-01-25T11:44:54.619Z,70.30
2019-01-25T11:47:39.838Z,70.60
2019-01-25T11:50:24.873Z,69.90
2019-01-25T11:53:10.322Z,69.30
2019-01-25T11:55:55.518Z,69.00
2019-01-25T11:58:40.901Z,67.80
2019-01-25T12:01:26.250Z,68.30
2019-01-25T12:04:11.576Z,68.60
2019-01-25T12:07:16.290Z,68.50
2019-01-25T12:10:01.496Z,67.90
2019-01-25T12:12:47.046Z,68.40
2019-01-25T12:15:32.329Z,69.60
2019-01-25T12:18:17.368Z,68.70
2019-01-25T12:21:02.564Z,69.50
2019-01-25T12:23:47.943Z,69.90
2019-01-25T12:26:34.017Z,69.80
2019-01-25T12:29:19.277Z,70.80
2019-01-25T12:32:11.624Z,70.60
2019-01-25T12:38:15.550Z,70.10
2019-01-25T12:41:01.328Z,68.70
2019-01-25T12:43:46.112Z,70.10
2019-01-25T12:46:32.118Z,70.50
2019-01-25T12:49:30.815Z,70.10
2019-01-25T12:52:16.454Z,70.10
2019-01-25T12:55:09.675Z,70.00
2019-01-25T12:58:23.446Z,69.80
2019-01-25T13:01:10.068Z,70.80
2019-01-25T13:04:01.629Z,71.50
2019-01-25T13:06:47.303Z,72.30
2019-01-25T13:09:42.387Z,71.70
2019-01-25T13:12:33.235Z,72.20
2019-01-25T13:15:47.095Z,72.30
2019-01-25T13:18:25.427Z,72.80
2019-01-25T13:25:03.566Z,73.50
2019-01-25T13:44:57.868Z,75.50
2019-01-25T13:47:47.078Z,74.80
2019-01-25T13:50:40.682Z,75.20
2019-01-25T13:53:26.516Z,75.40
2019-01-25T13:59:37.733Z,74.70
2019-01-25T14:02:30.586Z,74.10
2019-01-25T14:05:20.248Z,73.10
2019-01-25T14:08:20.932Z,73.10
2019-01-25T14:11:29.490Z,72.90
2019-01-25T14:14:39.579Z,72.50
2019-01-25T14:17:31.971Z,71.60
2019-01-25T14:26:44.303Z,73.00
2019-01-25T14:29:54.751Z,72.80
2019-01-25T14:32:43.439Z,72.80
2019-01-25T14:35:41.317Z,73.30
2019-01-25T14:38:27.094Z,73.60
2019-01-25T14:41:35.676Z,73.10
2019-01-25T14:44:23.894Z,73.80
2019-01-25T14:47:13.837Z,73.80
2019-01-25T14:50:03.815Z,74.30
2019-01-25T14:52:49.238Z,73.60
2019-01-25T14:55:48.612Z,73.70
2019-01-25T14:59:01.758Z,73.90
2019-01-25T15:02:15.158Z,72.80
2019-01-25T15:05:32.358Z,72.50
2019-01-25T15:11:53.073Z,74.50
2019-01-25T15:14:40.353Z,74.50
2019-01-25T15:17:32.768Z,74.50
2019-01-25T15:20:33.801Z,74.30
2019-01-25T15:23:19.055Z,74.70
2019-01-25T15:26:20.197Z,74.60
2019-01-25T15:29:08.867Z,75.10
2019-01-25T15:31:57.222Z,74.80
2019-01-25T15:34:48.579Z,74.40
2019-01-25T15:37:42.627Z,75.10
2019-01-25T15:40:31.567Z,75.40
2019-01-25T15:43:33.016Z,75.80
2019-01-25T15:58:24.148Z,76.50
2019-01-25T16:00:56.386Z,76.90
2019-01-25T16:08:08.770Z,75.80
2019-01-25T16:19:00.235Z,77.30
2019-01-25T16:22:07.334Z,76.80
2019-01-25T16:34:07.164Z,76.10
2019-01-25T16:36:52.543Z,76.00
2019-01-25T16:51:54.244Z,77.00
2019-01-25T16:59:01.288Z,77.10
2019-01-25T17:05:43.231Z,74.70
2019-01-25T17:09:06.563Z,75.10
2019-01-25T17:12:25.661Z,74.80
2019-01-25T17:15:37.983Z,75.80
2019-01-25T17:47:39.590Z,76.70
2019-01-25T17:50:28.971Z,76.30
2019-01-25T18:07:56.293Z,76.80
2019-01-25T18:11:55.163Z,76.60
2019-01-25T18:25:10.130Z,76.30
2019-01-25T18:35:19.938Z,77.10
2019-01-25T18:42:14.215Z,76.50
2019-01-25T18:50:58.952Z,76.90
2019-01-25T18:54:16.261Z,77.10
2019-01-25T19:01:10.285Z,77.30
2019-01-25T19:23:52.405Z,77.80
2019-01-25T19:55:06.442Z,79.60
2019-01-25T19:58:32.569Z,79.00
2019-01-25T20:15:51.883Z,80.40
2019-01-25T20:22:32.826Z,81.10
2019-01-25T20:25:18.125Z,79.90
2019-01-25T20:28:30.207Z,80.80
2019-01-25T20:55:05.895Z,81.10
2019-01-25T20:58:13.157Z,80.70
2019-01-25T21:01:02.817Z,80.60
2019-01-25T21:07:07.122Z,81.00
2019-01-25T22:25:21.949Z,81.20
2019-01-25T22:28:07.535Z,80.80
2019-01-25T22:31:24.620Z,80.10
2019-01-25T22:34:18.273Z,79.60
2019-01-25T22:40:35.548Z,79.60
2019-01-25T22:50:14.292Z,79.60
2019-01-25T23:55:58.832Z,71.70
